Time;durP1;ratioP1;P1;durP2;ratioP2;P2;SDS_P1;SDS_P2;PMS_P1;PMS_P2;Temp;Humidity;BMP_temperature;BMP_pressure;BME280_temperature;BME280_humidity;BME280_pressure;Samples;Min_cycle;Max_cycle;Signal;HPM_P1;HPM_P2
2022/08/12 00:44:08;;;;;;;0.90;0.73;;;19.70;43.90;21.80;94052.00;;;;10434081;28;45303;-64
2022/08/12 00:49:31;;;;;;;0.90;0.73;;;19.70;43.60;21.70;94053.00;;;;10433964;28;45234;-64
2022/08/12 00:54:55;;;;;;;1.48;0.90;;;19.70;43.50;21.70;94055.00;;;;10434225;28;45476;-63
2022/08/12 01:00:20;;;;;;;1.10;0.80;;;19.60;43.50;21.70;94051.00;;;;10430807;28;45242;-64
2022/08/12 01:11:30;;;;;;;1.30;0.90;;;19.50;43.00;21.70;94047.00;;;;10433264;28;45209;-64
2022/08/12 01:16:52;;;;;;;1.15;0.65;;;19.50;43.00;21.70;94053.00;;;;10433214;28;45481;-64
2022/08/12 01:22:23;;;;;;;1.45;0.90;;;19.50;43.00;21.60;94037.00;;;;10448289;28;45175;-64
2022/08/12 01:27:50;;;;;;;2.00;0.82;;;19.50;42.80;21.60;94031.00;;;;10431593;28;45207;-64
2022/08/12 01:33:15;;;;;;;1.42;0.90;;;19.50;42.90;21.60;94045.00;;;;10432862;28;45436;-64
2022/08/12 01:38:37;;;;;;;1.92;0.75;;;19.50;42.90;21.60;94033.00;;;;10432678;28;45213;-64
2022/08/12 01:44:01;;;;;;;0.70;0.70;;;19.40;43.00;21.60;94020.00;;;;10432692;28;45405;-64
2022/08/12 01:49:55;;;;;;;0.98;0.70;;;19.40;42.80;21.60;94025.00;;;;10433095;28;45193;-64
2022/08/12 01:55:20;;;;;;;2.00;1.00;;;19.40;42.70;21.50;94015.00;;;;10431007;28;45173;-64
2022/08/12 02:00:57;;;;;;;1.33;0.80;;;19.40;42.70;21.50;94015.00;;;;10418458;28;45236;-64
2022/08/12 02:12:14;;;;;;;2.13;0.70;;;19.40;42.70;21.50;93990.00;;;;10431798;28;45200;-65
2022/08/12 02:18:04;;;;;;;1.73;0.90;;;19.40;42.70;21.50;93995.00;;;;10431434;28;45384;-64
2022/08/12 02:23:26;;;;;;;0.82;0.70;;;19.40;42.50;21.50;93988.00;;;;10445425;28;45177;-64
2022/08/12 02:28:48;;;;;;;1.45;0.90;;;19.30;42.50;21.50;94002.00;;;;10431571;28;45236;-64
2022/08/12 02:34:11;;;;;;;2.40;0.80;;;19.30;42.50;21.50;93974.00;;;;10430950;28;45269;-64
2022/08/12 02:39:33;;;;;;;0.82;0.80;;;19.30;42.30;21.50;93982.00;;;;10431722;28;45461;-64
2022/08/12 02:44:56;;;;;;;1.50;0.80;;;19.30;42.50;21.50;93984.00;;;;10431036;28;45213;-63
2022/08/12 02:50:20;;;;;;;0.95;0.70;;;19.30;42.30;21.50;93968.00;;;;10430268;28;45223;-64
2022/08/12 02:55:44;;;;;;;1.25;0.77;;;19.30;42.10;21.50;93964.00;;;;10417396;28;45270;-64
2022/08/12 03:01:08;;;;;;;0.80;0.70;;;19.30;42.40;21.50;93966.00;;;;10429812;28;45382;-64
2022/08/12 03:06:42;;;;;;;1.63;0.95;;;19.30;42.30;21.50;93960.00;;;;10429026;28;45417;-64
2022/08/12 03:12:06;;;;;;;2.28;0.80;;;19.30;42.40;21.40;93952.00;;;;10429497;28;46105;-65
2022/08/12 03:17:34;;;;;;;1.90;0.80;;;19.30;42.30;21.50;93955.00;;;;10429329;28;45256;-63
2022/08/12 03:22:59;;;;;;;1.15;0.70;;;19.30;42.30;21.40;93938.00;;;;10445626;28;45136;-64
2022/08/12 03:33:59;;;;;;;0.70;0.70;;;19.30;42.60;21.50;93955.00;;;;10429017;28;45118;-63
2022/08/12 03:39:34;;;;;;;1.40;0.80;;;19.30;42.20;21.50;93941.00;;;;10435153;28;45162;-63
2022/08/12 04:02:07;;;;;;;1.13;0.80;;;19.20;41.80;21.40;93947.00;;;;10432035;28;45291;-63
2022/08/12 04:07:30;;;;;;;0.95;0.70;;;19.30;41.90;21.40;93950.00;;;;10434346;28;45223;-64
2022/08/12 04:13:18;;;;;;;1.50;0.90;;;19.20;41.80;21.40;93954.00;;;;10435034;28;45196;-63
2022/08/12 04:18:39;;;;;;;1.33;0.73;;;19.20;41.80;21.40;93961.00;;;;10434236;28;45221;-64
2022/08/12 04:24:01;;;;;;;1.13;0.70;;;19.20;41.60;21.40;93939.00;;;;10450373;28;45253;-63
2022/08/12 04:29:23;;;;;;;0.80;0.60;;;19.20;41.50;21.30;93941.00;;;;10434244;28;45527;-64
2022/08/12 04:34:44;;;;;;;0.90;0.50;;;19.20;41.50;21.40;93954.00;;;;10434127;28;45553;-64
2022/08/12 04:40:06;;;;;;;0.80;0.60;;;19.20;41.50;21.40;93946.00;;;;10433643;28;45208;-64
2022/08/12 04:45:28;;;;;;;1.00;0.73;;;19.20;41.30;21.30;93949.00;;;;10433142;28;45191;-63
2022/08/12 04:50:49;;;;;;;0.98;0.80;;;19.20;41.50;21.40;93945.00;;;;10433281;28;45531;-63
2022/08/12 04:56:10;;;;;;;1.75;0.68;;;19.20;41.50;21.30;93939.00;;;;10432932;28;45297;-64
2022/08/12 05:01:35;;;;;;;1.83;0.60;;;19.20;41.40;21.30;93944.00;;;;10439574;28;45261;-64
2022/08/12 05:06:55;;;;;;;1.63;0.68;;;19.20;41.70;21.30;93945.00;;;;10440044;28;45243;-64
2022/08/12 05:12:18;;;;;;;1.13;0.60;;;19.30;41.70;21.40;93929.00;;;;10428759;28;45171;-64
2022/08/12 05:17:41;;;;;;;0.90;0.70;;;19.30;41.60;21.40;93933.00;;;;10439875;28;45277;-64
2022/08/12 05:23:08;;;;;;;0.80;0.70;;;19.30;41.70;21.40;93932.00;;;;10463841;28;45447;-64
2022/08/12 05:28:30;;;;;;;0.88;0.68;;;19.30;41.80;21.40;93950.00;;;;10439762;28;45229;-64
2022/08/12 05:33:52;;;;;;;1.33;0.57;;;19.30;41.90;21.40;93952.00;;;;10439138;28;45200;-64
2022/08/12 05:39:12;;;;;;;1.17;0.75;;;19.30;42.00;21.40;93962.00;;;;10439604;28;45212;-63
2022/08/12 05:44:33;;;;;;;0.82;0.60;;;19.30;42.00;21.40;93963.00;;;;10439445;28;45261;-64
2022/08/12 05:49:55;;;;;;;1.10;0.60;;;19.30;42.10;21.40;93958.00;;;;10439413;28;45202;-63
2022/08/12 05:55:16;;;;;;;1.17;0.68;;;19.30;42.30;21.40;93963.00;;;;10438118;28;45117;-63
2022/08/12 06:00:37;;;;;;;1.73;0.80;;;19.30;42.40;21.30;93962.00;;;;10438218;28;45204;-64
2022/08/12 06:05:59;;;;;;;0.80;0.70;;;19.20;42.60;21.30;93973.00;;;;10427263;28;45183;-65
2022/08/12 06:11:20;;;;;;;1.73;0.88;;;19.20;43.00;21.30;93970.00;;;;10430621;28;45185;-64
2022/08/12 06:16:42;;;;;;;1.00;0.70;;;19.20;43.30;21.30;93960.00;;;;10431154;28;45195;-64
2022/08/12 06:22:04;;;;;;;1.73;0.90;;;19.20;43.60;21.30;93976.00;;;;10435409;28;45232;-64
2022/08/12 06:27:25;;;;;;;1.17;0.80;;;19.20;43.60;21.40;93970.00;;;;10436640;28;45142;-64
2022/08/12 06:32:47;;;;;;;1.02;0.80;;;19.20;43.40;21.30;93965.00;;;;10430509;28;45212;-64
2022/08/12 06:38:17;;;;;;;0.90;0.60;;;19.30;43.40;21.30;93962.00;;;;10430269;28;45178;-64
2022/08/12 06:43:38;;;;;;;1.17;0.70;;;19.30;43.70;21.30;93977.00;;;;10429795;28;45322;-64
2022/08/12 06:48:59;;;;;;;0.95;0.70;;;19.30;43.90;21.30;93987.00;;;;10428764;28;45189;-64
2022/08/12 06:54:21;;;;;;;1.85;0.70;;;19.20;44.00;21.40;93972.00;;;;10429692;28;45177;-63
2022/08/12 06:59:43;;;;;;;1.00;0.80;;;19.30;44.10;21.30;93977.00;;;;10429402;28;45215;-65
2022/08/12 07:05:04;;;;;;;2.45;0.80;;;19.30;44.40;21.40;93979.00;;;;10430041;28;45308;-64
2022/08/12 07:10:27;;;;;;;0.73;0.60;;;19.30;44.50;21.40;93973.00;;;;10416832;28;45259;-63
2022/08/12 07:15:49;;;;;;;1.73;0.75;;;19.30;44.60;21.40;93973.00;;;;10429309;28;45379;-64
2022/08/12 07:21:11;;;;;;;0.65;0.65;;;19.30;44.70;21.50;93968.00;;;;10436366;28;45232;-64
2022/08/12 07:26:38;;;;;;;0.70;0.70;;;19.30;44.60;21.50;93961.00;;;;10442036;28;45399;-64
2022/08/12 07:31:58;;;;;;;1.98;0.85;;;19.30;44.80;21.50;93975.00;;;;10429212;28;45158;-64
2022/08/12 07:37:19;;;;;;;2.83;1.00;;;19.40;45.00;21.50;93982.00;;;;10428863;28;45436;-64
2022/08/12 07:42:42;;;;;;;1.00;0.70;;;19.40;45.00;21.50;93961.00;;;;10428828;28;45161;-64
2022/08/12 07:48:04;;;;;;;1.77;0.70;;;19.40;44.90;21.50;93961.00;;;;10428597;28;45265;-63
2022/08/12 07:53:24;;;;;;;1.20;0.90;;;19.30;45.10;21.50;93967.00;;;;10428271;28;45279;-64
2022/08/12 07:58:46;;;;;;;1.52;0.70;;;19.40;45.10;21.50;93978.00;;;;10435444;28;45317;-64
2022/08/12 08:09:46;;;;;;;0.85;0.68;;;19.40;45.40;21.60;93985.00;;;;10427523;28;45263;-64
2022/08/12 08:15:08;;;;;;;1.35;0.65;;;19.50;45.70;21.60;93985.00;;;;10432275;28;45319;-64
2022/08/12 08:20:32;;;;;;;0.50;0.50;;;19.50;45.70;21.60;93989.00;;;;10428873;28;45192;-64
2022/08/12 08:25:53;;;;;;;2.67;0.68;;;19.50;45.50;21.60;93995.00;;;;10427505;28;45248;-64
2022/08/12 08:31:15;;;;;;;1.35;0.80;;;19.50;45.90;21.60;93990.00;;;;10427939;28;45153;-64
2022/08/12 08:36:36;;;;;;;2.95;0.80;;;19.50;46.10;21.70;93984.00;;;;10433321;28;45264;-64
2022/08/12 08:47:44;;;;;;;1.63;0.77;;;19.60;46.50;21.70;94000.00;;;;10434051;28;45233;-64
2022/08/12 08:53:07;;;;;;;1.92;0.70;;;19.60;46.60;21.70;93997.00;;;;10436597;28;45224;-64
2022/08/12 08:58:27;;;;;;;2.05;0.70;;;19.60;46.80;21.70;94003.00;;;;10440918;28;45236;-66
2022/08/12 09:03:49;;;;;;;1.23;0.77;;;19.60;46.60;21.70;93989.00;;;;10440720;28;45223;-65
2022/08/12 09:09:13;;;;;;;0.60;0.55;;;19.60;46.30;21.70;93978.00;;;;10433656;28;45188;-65
2022/08/12 09:14:33;;;;;;;1.42;0.70;;;19.60;46.30;21.70;93994.00;;;;10434111;28;45429;-64
2022/08/12 09:19:55;;;;;;;0.82;0.50;;;19.60;46.10;21.70;93978.00;;;;10434140;28;45431;-64
2022/08/12 09:25:17;;;;;;;0.90;0.70;;;19.60;46.10;21.70;93985.00;;;;10422006;28;45249;-64
2022/08/12 09:30:43;;;;;;;0.90;0.70;;;19.60;46.10;21.70;93984.00;;;;10432764;28;45217;-64
2022/08/12 09:36:06;;;;;;;1.02;0.80;;;19.60;46.10;21.70;93977.00;;;;10431642;28;45260;-64
2022/08/12 09:41:37;;;;;;;1.15;0.60;;;19.60;46.00;21.70;93963.00;;;;10432868;28;45228;-65
2022/08/12 09:46:58;;;;;;;0.50;0.40;;;19.60;46.10;21.80;93964.00;;;;10431316;28;45278;-64
2022/08/12 09:52:21;;;;;;;1.95;0.57;;;19.60;45.00;21.80;93969.00;;;;10438431;28;45360;-65
2022/08/12 09:57:41;;;;;;;1.10;0.60;;;19.70;44.70;21.80;93961.00;;;;10441925;28;45178;-64
2022/08/12 10:03:05;;;;;;;1.15;0.82;;;19.70;44.40;21.80;93946.00;;;;10444316;28;45340;-65
2022/08/12 10:08:30;;;;;;;0.77;0.60;;;19.70;44.30;21.90;93946.00;;;;10432799;28;45205;-65
2022/08/12 10:13:54;;;;;;;1.00;0.60;;;19.80;44.80;21.90;93951.00;;;;10422400;28;45200;-65
2022/08/12 10:19:17;;;;;;;0.60;0.60;;;19.80;44.20;21.90;93945.00;;;;10432244;28;45170;-65
2022/08/12 10:24:39;;;;;;;0.70;0.60;;;19.80;44.80;22.00;93954.00;;;;10432296;28;45200;-65
2022/08/12 10:30:01;;;;;;;1.23;0.70;;;19.90;45.30;22.00;93952.00;;;;10433272;28;45345;-66
2022/08/12 10:35:24;;;;;;;0.57;0.57;;;19.90;46.00;22.00;93958.00;;;;10429784;28;45436;-66
2022/08/12 10:46:24;;;;;;;0.88;0.60;;;19.90;45.30;22.00;93934.00;;;;10419532;28;45245;-66
2022/08/12 10:51:47;;;;;;;0.70;0.65;;;19.90;44.80;22.00;93939.00;;;;10430794;28;45216;-66
2022/08/12 10:57:10;;;;;;;0.73;0.57;;;19.90;44.30;22.00;93940.00;;;;10429290;28;45148;-66
2022/08/12 11:02:30;;;;;;;1.50;0.55;;;19.90;44.60;22.00;93942.00;;;;10434299;28;45161;-65
2022/08/12 11:07:53;;;;;;;0.93;0.60;;;19.80;45.10;22.00;93919.00;;;;10427673;28;45379;-66
2022/08/12 11:13:15;;;;;;;0.75;0.55;;;19.80;44.70;22.00;93902.00;;;;10453311;28;45160;-65
2022/08/12 11:18:36;;;;;;;1.58;0.60;;;19.90;44.70;22.00;93916.00;;;;10430235;28;45224;-68
2022/08/12 11:23:56;;;;;;;1.02;0.50;;;19.90;44.90;22.00;93924.00;;;;10430272;28;45158;-67
2022/08/12 11:29:20;;;;;;;2.10;0.55;;;19.90;45.00;22.00;93902.00;;;;10437822;28;45229;-66
2022/08/12 11:34:41;;;;;;;0.50;0.50;;;20.00;45.00;22.10;93919.00;;;;10428717;28;45153;-65
2022/08/12 11:40:01;;;;;;;0.85;0.40;;;20.00;45.00;22.10;93911.00;;;;10428795;28;45159;-64
2022/08/12 11:45:23;;;;;;;1.95;0.52;;;19.90;44.80;22.00;93901.00;;;;10427078;28;45245;-63
2022/08/12 11:50:44;;;;;;;0.70;0.50;;;20.00;44.90;22.10;93896.00;;;;10428121;28;45303;-66
2022/08/12 11:56:07;;;;;;;0.95;0.50;;;20.00;44.90;22.10;93916.00;;;;10427915;28;45211;-64
2022/08/12 12:01:28;;;;;;;0.85;0.50;;;20.00;44.90;22.10;93903.00;;;;10438598;28;45255;-68
2022/08/12 12:06:49;;;;;;;0.65;0.60;;;20.00;44.60;22.10;93891.00;;;;10427681;28;45211;-67
2022/08/12 12:12:10;;;;;;;0.85;0.50;;;20.00;44.70;22.10;93882.00;;;;10428264;28;45128;-66
2022/08/12 12:17:34;;;;;;;0.60;0.43;;;20.00;44.70;22.10;93888.00;;;;10439705;28;45254;-64
2022/08/12 12:22:55;;;;;;;0.50;0.40;;;20.00;44.90;22.10;93895.00;;;;10427611;28;45254;-65
2022/08/12 12:28:16;;;;;;;0.98;0.57;;;20.00;44.80;22.10;93886.00;;;;10427422;28;45179;-67
2022/08/12 12:33:39;;;;;;;0.40;0.40;;;20.00;44.80;22.10;93881.00;;;;10428110;28;45184;-66
2022/08/12 12:38:59;;;;;;;0.40;0.40;;;20.00;44.70;22.10;93876.00;;;;10427303;28;45184;-66
2022/08/12 12:44:20;;;;;;;0.80;0.50;;;20.00;44.70;22.10;93880.00;;;;10426237;28;45126;-67
2022/08/12 12:49:42;;;;;;;1.25;0.55;;;20.00;44.70;22.10;93884.00;;;;10426463;28;45245;-66
2022/08/12 12:55:04;;;;;;;0.65;0.55;;;20.00;44.70;22.10;93863.00;;;;10425371;28;45314;-66
2022/08/12 13:00:26;;;;;;;0.70;0.50;;;20.00;44.70;22.10;93855.00;;;;10435085;28;45238;-65
2022/08/12 13:05:49;;;;;;;0.50;0.50;;;20.00;44.70;22.10;93843.00;;;;10426926;28;45226;-66
2022/08/12 13:11:10;;;;;;;0.77;0.60;;;20.00;44.60;22.10;93861.00;;;;10430128;28;45192;-66
2022/08/12 13:16:30;;;;;;;0.70;0.50;;;20.00;44.80;22.10;93855.00;;;;10426416;28;45187;-67
2022/08/12 13:27:36;;;;;;;0.80;0.50;;;20.00;45.00;22.10;93870.00;;;;10432910;28;45237;-66
2022/08/12 13:32:57;;;;;;;0.70;0.50;;;20.00;45.00;22.10;93849.00;;;;10432955;28;45373;-65
2022/08/12 13:38:20;;;;;;;0.65;0.50;;;20.00;45.80;22.10;93856.00;;;;10432410;28;45195;-66
2022/08/12 13:43:40;;;;;;;0.73;0.57;;;20.00;45.10;22.10;93862.00;;;;10431953;28;45202;-64
2022/08/12 13:49:02;;;;;;;0.82;0.50;;;19.90;45.10;22.10;93850.00;;;;10432367;28;45203;-67
2022/08/12 13:54:25;;;;;;;1.02;0.40;;;20.00;45.20;22.10;93853.00;;;;10432127;28;45208;-66
2022/08/12 13:59:45;;;;;;;1.20;0.30;;;20.00;45.20;22.10;93846.00;;;;10432985;28;45264;-66
2022/08/12 14:05:08;;;;;;;0.50;0.47;;;20.00;45.40;22.10;93851.00;;;;10440947;28;44582;-67
2022/08/12 14:10:37;;;;;;;0.40;0.30;;;20.00;45.40;22.10;93850.00;;;;10431242;28;45131;-67
2022/08/12 14:16:02;;;;;;;0.57;0.50;;;20.00;45.50;22.10;93844.00;;;;10431159;28;45184;-66
2022/08/12 14:21:22;;;;;;;0.50;0.47;;;20.00;45.60;22.10;93832.00;;;;10430641;28;45202;-65
2022/08/12 14:26:44;;;;;;;0.90;0.52;;;20.00;45.60;22.10;93836.00;;;;10430665;28;45161;-67
2022/08/12 14:32:06;;;;;;;0.73;0.32;;;20.00;45.50;22.10;93824.00;;;;10431256;28;45493;-66
2022/08/12 14:37:26;;;;;;;0.65;0.45;;;20.00;45.70;22.10;93841.00;;;;10430433;28;45191;-66
2022/08/12 14:42:48;;;;;;;1.55;0.50;;;20.00;45.80;22.10;93839.00;;;;10431008;28;45223;-65
2022/08/12 14:48:09;;;;;;;0.57;0.55;;;20.00;45.70;22.10;93837.00;;;;10430446;28;45348;-65
2022/08/12 14:53:30;;;;;;;0.52;0.40;;;20.00;45.80;22.10;93828.00;;;;10430129;28;45253;-65
2022/08/12 15:04:30;;;;;;;0.50;0.50;;;20.00;45.80;22.10;93839.00;;;;10444798;28;45084;-65
2022/08/12 15:09:51;;;;;;;1.20;0.40;;;20.00;45.80;22.20;93842.00;;;;10429728;28;45264;-64
2022/08/12 15:15:13;;;;;;;0.88;0.40;;;20.00;45.90;22.10;93836.00;;;;10429495;28;45340;-65
2022/08/12 15:20:35;;;;;;;1.02;0.52;;;20.00;45.70;22.20;93834.00;;;;10429223;28;45277;-65
2022/08/12 15:25:57;;;;;;;0.77;0.40;;;20.00;45.70;22.20;93835.00;;;;10428944;28;45208;-65
2022/08/12 15:31:20;;;;;;;0.55;0.40;;;20.00;45.80;22.20;93836.00;;;;10428867;28;45319;-65
2022/08/12 15:36:40;;;;;;;0.60;0.40;;;20.00;46.00;22.20;93835.00;;;;10428555;28;45360;-64
2022/08/12 15:42:01;;;;;;;0.60;0.43;;;20.10;45.80;22.20;93821.00;;;;10428013;28;45154;-64
2022/08/12 15:47:23;;;;;;;0.70;0.40;;;20.10;45.80;22.20;93836.00;;;;10428711;28;45425;-65
2022/08/12 15:52:44;;;;;;;1.42;0.40;;;20.10;45.90;22.20;93830.00;;;;10428815;28;45160;-65
2022/08/12 15:58:05;;;;;;;1.02;0.40;;;20.10;46.50;22.20;93831.00;;;;10428076;28;45569;-64
2022/08/12 16:03:31;;;;;;;0.52;0.40;;;20.10;45.90;22.20;93828.00;;;;10441534;28;45182;-65
2022/08/12 16:08:52;;;;;;;0.80;0.70;;;20.10;45.80;22.20;93814.00;;;;10428143;28;45312;-65
2022/08/12 16:14:14;;;;;;;0.43;0.38;;;20.10;45.80;22.20;93810.00;;;;10427605;28;45482;-65
2022/08/12 16:19:36;;;;;;;0.52;0.40;;;20.10;45.90;22.20;93823.00;;;;10427300;28;45929;-67
2022/08/12 16:24:56;;;;;;;0.52;0.40;;;20.10;45.90;22.20;93821.00;;;;10426628;28;45172;-66
2022/08/12 16:30:18;;;;;;;0.40;0.40;;;20.20;45.90;22.20;93817.00;;;;10427859;28;45223;-66
2022/08/12 16:35:42;;;;;;;0.45;0.40;;;20.20;45.90;22.20;93814.00;;;;10426976;28;45160;-67
2022/08/12 16:41:03;;;;;;;0.40;0.40;;;20.20;45.90;22.20;93810.00;;;;10445830;28;45174;-66
2022/08/12 16:46:24;;;;;;;0.57;0.43;;;20.20;45.90;22.20;93817.00;;;;10427441;28;45101;-66
2022/08/12 16:51:47;;;;;;;0.40;0.40;;;20.10;46.00;22.20;93815.00;;;;10427451;28;45091;-66
2022/08/12 16:57:08;;;;;;;0.50;0.30;;;20.20;45.90;22.30;93819.00;;;;10432828;28;45206;-66
2022/08/12 17:02:29;;;;;;;0.52;0.43;;;20.10;45.80;22.30;93819.00;;;;10428923;28;45227;-65
2022/08/12 17:07:53;;;;;;;0.60;0.43;;;20.10;46.00;22.30;93805.00;;;;10432610;28;45142;-67
2022/08/12 17:13:13;;;;;;;0.68;0.40;;;20.10;45.80;22.30;93820.00;;;;10435032;28;45233;-66
2022/08/12 17:18:34;;;;;;;0.55;0.40;;;20.20;45.80;22.20;93822.00;;;;10434049;28;45277;-66
2022/08/12 17:24:00;;;;;;;0.40;0.35;;;20.20;45.90;22.20;93826.00;;;;10428916;28;45290;-65
2022/08/12 17:29:23;;;;;;;0.38;0.30;;;20.10;46.10;22.20;93818.00;;;;10431650;28;45256;-64
2022/08/12 17:40:29;;;;;;;0.40;0.40;;;20.00;46.10;22.20;93836.00;;;;10439524;28;45211;-65
2022/08/12 17:45:51;;;;;;;0.50;0.35;;;20.00;45.90;22.20;93831.00;;;;10431590;28;45272;-67
2022/08/12 17:51:15;;;;;;;0.47;0.35;;;20.10;46.30;22.20;93836.00;;;;10431179;28;45252;-65
2022/08/12 17:56:37;;;;;;;1.00;0.43;;;20.00;46.30;22.20;93832.00;;;;10430496;28;45109;-65
2022/08/12 18:01:57;;;;;;;0.40;0.40;;;20.00;46.40;22.20;93834.00;;;;10429616;28;45450;-67
2022/08/12 18:07:22;;;;;;;0.57;0.40;;;20.00;46.50;22.20;93839.00;;;;10424368;28;45244;-65
2022/08/12 18:12:46;;;;;;;0.50;0.35;;;20.00;46.50;22.20;93851.00;;;;10428827;28;45262;-65
2022/08/12 18:18:06;;;;;;;0.40;0.20;;;20.00;46.60;22.20;93851.00;;;;10431687;28;45689;-65
2022/08/12 18:23:26;;;;;;;0.85;0.35;;;20.00;46.60;22.20;93860.00;;;;10431706;28;45173;-65
2022/08/12 18:28:50;;;;;;;0.80;0.45;;;20.00;46.50;22.20;93862.00;;;;10430935;28;45479;-65
2022/08/12 18:34:12;;;;;;;0.63;0.40;;;20.00;46.50;22.20;93873.00;;;;10430895;28;45614;-65
2022/08/12 18:41:27;;;;;;;1.58;0.40;;;20.00;46.40;22.20;93870.00;;;;10433470;28;45413;-65
2022/08/12 18:45:18;;;;;;;0.60;0.50;;;20.00;46.40;22.10;93866.00;;;;10438827;28;45270;-65
2022/08/12 18:50:39;;;;;;;0.75;0.30;;;20.00;46.30;22.10;93881.00;;;;10435466;28;45541;-65
2022/08/12 18:56:03;;;;;;;0.73;0.40;;;20.00;46.30;22.10;93869.00;;;;10434976;28;45161;-65
2022/08/12 19:01:25;;;;;;;0.93;0.40;;;20.00;46.30;22.10;93881.00;;;;10435339;28;45192;-66
2022/08/12 19:06:46;;;;;;;0.70;0.40;;;20.00;46.20;22.10;93887.00;;;;10434614;28;45117;-65
2022/08/12 19:17:51;;;;;;;1.10;0.50;;;20.00;45.50;22.10;93893.00;;;;10436156;28;45229;-65
2022/08/12 19:23:14;;;;;;;0.30;0.30;;;20.00;45.20;22.10;93889.00;;;;10435623;28;45236;-65
2022/08/12 19:28:35;;;;;;;0.60;0.40;;;19.90;45.20;22.10;93887.00;;;;10435064;28;45207;-65
2022/08/12 19:33:57;;;;;;;0.77;0.50;;;19.90;44.80;22.00;93893.00;;;;10435643;28;45261;-65
2022/08/12 19:39:18;;;;;;;1.35;0.50;;;19.90;44.70;22.00;93887.00;;;;10442080;28;45259;-65
2022/08/12 19:44:39;;;;;;;1.15;0.50;;;19.90;45.00;22.00;93888.00;;;;10432110;28;45270;-65
2022/08/12 19:50:01;;;;;;;0.55;0.40;;;19.90;45.10;22.00;93886.00;;;;10435173;28;45269;-65
2022/08/12 19:55:22;;;;;;;0.57;0.50;;;19.90;44.80;22.00;93898.00;;;;10435371;28;45181;-65
2022/08/12 20:00:44;;;;;;;0.95;0.50;;;19.90;44.70;22.00;93903.00;;;;10422472;28;45423;-65
2022/08/12 20:06:07;;;;;;;0.50;0.50;;;19.90;44.60;21.90;93885.00;;;;10429981;28;45171;-65
2022/08/12 20:11:29;;;;;;;0.47;0.32;;;19.90;44.50;21.90;93900.00;;;;10427691;28;45424;-65
2022/08/12 20:16:51;;;;;;;0.93;0.50;;;19.90;44.20;21.90;93898.00;;;;10426827;28;45260;-65
2022/08/12 20:22:17;;;;;;;1.08;0.50;;;19.90;44.00;21.90;93895.00;;;;10428372;28;45200;-65
2022/08/12 20:27:40;;;;;;;0.65;0.45;;;19.90;43.50;21.90;93901.00;;;;10434115;28;45277;-65
2022/08/12 20:33:02;;;;;;;2.40;0.40;;;19.90;43.20;21.90;93892.00;;;;10441968;28;45229;-64
2022/08/12 20:38:24;;;;;;;1.55;0.60;;;19.80;43.10;21.90;93898.00;;;;10440824;28;45356;-65
2022/08/12 20:43:45;;;;;;;2.38;0.47;;;19.80;42.80;21.90;93898.00;;;;10460728;28;45200;-65
2022/08/12 20:49:08;;;;;;;0.98;0.50;;;19.80;42.60;21.90;93895.00;;;;10441447;28;45414;-65
2022/08/12 20:54:32;;;;;;;0.73;0.47;;;19.80;42.30;21.90;93904.00;;;;10440440;28;45974;-65
2022/08/12 20:59:53;;;;;;;1.13;0.70;;;19.80;42.40;21.80;93902.00;;;;10433345;28;45217;-65
2022/08/12 21:10:54;;;;;;;1.67;0.60;;;19.70;42.30;21.90;93890.00;;;;10434021;28;45382;-65
2022/08/12 21:16:15;;;;;;;0.65;0.55;;;19.80;42.20;21.80;93889.00;;;;10435388;28;45243;-65
2022/08/12 21:21:35;;;;;;;0.82;0.50;;;19.70;42.60;21.80;93883.00;;;;10439591;28;45195;-65
2022/08/12 21:26:58;;;;;;;0.80;0.50;;;19.70;42.60;21.80;93887.00;;;;10440002;28;45421;-65
2022/08/12 21:32:19;;;;;;;0.77;0.50;;;19.80;42.60;21.80;93886.00;;;;10439881;28;45433;-65
2022/08/12 21:37:41;;;;;;;0.55;0.50;;;19.70;42.50;21.80;93881.00;;;;10439321;28;45552;-64
2022/08/12 21:43:06;;;;;;;1.27;0.38;;;19.70;42.60;21.80;93885.00;;;;10458294;28;45153;-65
2022/08/12 21:48:27;;;;;;;1.45;0.57;;;19.70;42.40;21.80;93884.00;;;;10445090;28;45060;-64
2022/08/12 21:53:48;;;;;;;1.52;0.50;;;19.70;42.30;21.80;93878.00;;;;10438235;28;45487;-65
2022/08/12 21:59:10;;;;;;;0.90;0.50;;;19.70;42.10;21.80;93889.00;;;;10426632;28;45481;-65
2022/08/12 22:10:10;;;;;;;0.90;0.50;;;19.70;42.00;21.70;93890.00;;;;10438495;28;45259;-65
2022/08/12 22:15:32;;;;;;;0.68;0.40;;;19.60;41.60;21.70;93891.00;;;;10428260;28;45244;-64
2022/08/12 22:20:53;;;;;;;0.85;0.50;;;19.60;41.60;21.70;93895.00;;;;10438328;28;45450;-64
2022/08/12 22:26:15;;;;;;;1.17;0.60;;;19.60;41.90;21.70;93894.00;;;;10437033;28;45142;-64
2022/08/12 22:31:37;;;;;;;0.77;0.50;;;19.70;42.50;21.70;93895.00;;;;10424203;28;45351;-65
2022/08/12 22:36:57;;;;;;;0.65;0.52;;;19.70;42.60;21.70;93893.00;;;;10436064;28;45361;-64
2022/08/12 22:47:53;;;;;;;0.52;0.40;;;19.60;43.20;21.70;93881.00;;;;10406180;28;45341;-65
2022/08/12 22:53:14;;;;;;;0.85;0.30;;;19.60;42.90;21.70;93898.00;;;;10434961;28;45309;-64
2022/08/12 22:58:36;;;;;;;0.40;0.40;;;19.60;42.60;21.70;93894.00;;;;10434410;28;45272;-65
2022/08/12 23:03:59;;;;;;;1.23;0.40;;;19.60;42.20;21.60;93890.00;;;;10435242;28;45157;-65
2022/08/12 23:09:22;;;;;;;0.82;0.47;;;19.50;41.80;21.70;93887.00;;;;10435044;28;45204;-66
2022/08/12 23:14:42;;;;;;;0.70;0.50;;;19.50;41.70;21.70;93878.00;;;;10434989;28;44666;-64
2022/08/12 23:20:05;;;;;;;0.57;0.40;;;19.60;41.80;21.60;93873.00;;;;10434942;28;45683;-65
2022/08/12 23:25:25;;;;;;;0.30;0.30;;;19.60;41.90;21.60;93857.00;;;;10433371;28;45570;-65
2022/08/12 23:30:46;;;;;;;0.50;0.40;;;19.50;41.70;21.60;93875.00;;;;10434346;28;45187;-65
2022/08/12 23:36:08;;;;;;;0.45;0.38;;;19.50;41.90;21.70;93854.00;;;;10433864;28;45140;-65
2022/08/12 23:41:28;;;;;;;0.68;0.35;;;19.50;41.90;21.60;93855.00;;;;10438137;28;45341;-65
2022/08/12 23:46:57;;;;;;;0.98;0.40;;;19.40;41.80;21.60;93843.00;;;;10428108;28;45461;-64
2022/08/12 23:52:19;;;;;;;0.63;0.40;;;19.50;41.90;21.60;93842.00;;;;10429757;28;45252;-64
2022/08/12 23:57:40;;;;;;;0.50;0.30;;;19.40;42.00;21.50;93820.00;;;;10427094;28;45221;-65
